Forside
METAR-TAF:

METAR-TAF

Lufthavne :

Bangalore, Indien

Breddekreds: 12-57-00N, længdekreds: 077-40-06E, højde: 888 m

Aktuelle vejr

Denne rapport blev lavet for 32 minutter siden, kl. 13:00 UTC
Vind 8 kt fra østsydøst
Temperatur 31°C
Fugtighed 24%
Tryk 1014 hPa
Sigt: 8000 m

METAR: VOBG 311300Z 11008KT 8000 NSC 31/08 Q1014 NOSIG

Tid: 19:02 (13:32 UTC)

Vejrudsigter

Denne rapport blev lavet for 2 timer og 32 minutter siden, kl. 11:00 UTC
Foreløbig gælder fra 31 på 12 UTC til 31 på 21 UTC
Vind 10 kt fra østsydøst
Sigt: 6000 m

TAF: VOBG 311100Z 3112/3121 11010KT 6000 NSC

Vejrobservationer og prognoser fra mere end 4000 lufthavne (METAR og TAF).

De gule og røde prikker repræsenterer de meteorologiske stationer.

Flyt musen over at se navnet på stationen.

Så klik over at se vejr observationer og prognoser.

At skifte det kort: Klik på de grønne knapper med et sort kors for at zoome ind; på den grønne knap med en bindestreg for at zoome ud; eller på de grønne pile for tilstødende kort.


METAR-TAF: